createdAt,value
2022-10-18T00:01:16.864Z,12.35
2022-10-18T00:04:04.310Z,11.70
2022-10-18T00:06:51.472Z,12.50
2022-10-18T00:09:38.712Z,14.05
2022-10-18T00:12:26.077Z,9.20
2022-10-18T00:15:13.218Z,9.45
2022-10-18T00:18:00.423Z,8.77
2022-10-18T00:21:03.492Z,11.75
2022-10-18T00:23:52.209Z,9.43
2022-10-18T00:26:39.426Z,10.18
2022-10-18T00:29:27.037Z,8.85
2022-10-18T00:32:14.299Z,9.13
2022-10-18T00:35:01.419Z,9.05
2022-10-18T00:37:48.474Z,11.60
2022-10-18T00:40:35.639Z,8.75
2022-10-18T00:43:22.727Z,8.27
2022-10-18T00:46:09.864Z,8.02
2022-10-18T00:49:00.198Z,7.00
2022-10-18T00:51:56.746Z,8.68
2022-10-18T00:54:46.137Z,6.47
2022-10-18T00:57:33.921Z,10.60
2022-10-18T01:00:21.373Z,6.93
2022-10-18T01:03:08.920Z,5.85
2022-10-18T01:05:56.061Z,6.22
2022-10-18T01:09:18.473Z,10.80
2022-10-18T01:12:43.496Z,6.38
2022-10-18T01:15:35.160Z,8.35
2022-10-18T01:18:33.726Z,6.18
2022-10-18T01:21:59.632Z,10.77
2022-10-18T01:25:14.072Z,7.65
2022-10-18T01:28:29.009Z,5.75
2022-10-18T01:31:35.355Z,7.25
2022-10-18T01:34:26.171Z,4.55
2022-10-18T01:37:16.999Z,9.77
2022-10-18T01:40:06.774Z,5.20
2022-10-18T01:42:54.365Z,6.05
2022-10-18T01:45:42.289Z,9.43
2022-10-18T01:48:30.782Z,13.07
2022-10-18T01:51:30.340Z,7.47
2022-10-18T01:54:39.239Z,6.10
2022-10-18T01:57:33.819Z,5.97
2022-10-18T02:00:31.647Z,8.32
2022-10-18T02:03:24.098Z,7.75
2022-10-18T02:06:31.886Z,5.97
2022-10-18T02:09:23.840Z,7.28
2022-10-18T02:12:13.496Z,9.23
2022-10-18T02:15:02.310Z,5.03
2022-10-18T02:24:02.369Z,7.97
2022-10-18T02:26:49.940Z,8.18
2022-10-18T02:29:37.960Z,7.00
2022-10-18T02:32:34.812Z,8.60
2022-10-18T02:36:39.558Z,9.27
2022-10-18T02:46:18.986Z,6.72
2022-10-18T02:49:06.229Z,10.02
2022-10-18T02:51:53.419Z,12.93
2022-10-18T02:54:40.918Z,6.85
2022-10-18T02:57:28.297Z,8.68
2022-10-18T03:00:15.841Z,5.55
2022-10-18T03:03:02.974Z,12.82
2022-10-18T03:05:51.030Z,5.00
2022-10-18T03:08:38.562Z,7.20
2022-10-18T03:11:31.767Z,8.05
2022-10-18T03:14:18.923Z,11.40
2022-10-18T03:17:06.016Z,8.02
2022-10-18T03:19:53.119Z,6.72
2022-10-18T03:22:40.254Z,10.00
2022-10-18T03:25:27.349Z,7.05
2022-10-18T03:28:14.506Z,4.18
2022-10-18T03:31:03.264Z,10.85
2022-10-18T03:33:50.510Z,7.30
2022-10-18T03:36:39.015Z,7.65
2022-10-18T03:39:26.260Z,9.32
2022-10-18T03:42:13.482Z,6.85
2022-10-18T03:45:00.762Z,4.35
2022-10-18T03:47:48.485Z,4.85
2022-10-18T03:50:35.780Z,8.43
2022-10-18T03:53:23.075Z,12.48
2022-10-18T03:56:10.379Z,9.65
2022-10-18T03:58:57.950Z,5.97
2022-10-18T04:01:45.297Z,5.38
2022-10-18T04:04:34.746Z,6.57
2022-10-18T04:07:21.797Z,9.85
2022-10-18T04:10:09.118Z,10.63
2022-10-18T04:12:56.444Z,5.57
2022-10-18T04:15:43.630Z,7.53
2022-10-18T04:18:31.315Z,5.53
2022-10-18T04:21:18.846Z,10.18
2022-10-18T04:24:06.292Z,8.00
2022-10-18T04:26:53.451Z,10.15
2022-10-18T04:29:40.674Z,8.20
2022-10-18T04:32:29.538Z,5.15
2022-10-18T04:35:16.772Z,6.57
2022-10-18T04:38:04.030Z,7.70
2022-10-18T04:40:51.387Z,7.82
2022-10-18T04:46:56.433Z,8.93
2022-10-18T04:49:44.030Z,8.40
2022-10-18T04:52:31.784Z,5.55
2022-10-18T04:55:19.652Z,8.18
2022-10-18T04:58:06.828Z,8.10
2022-10-18T05:00:54.204Z,12.30
2022-10-18T05:03:41.413Z,7.22
2022-10-18T05:06:28.601Z,4.75
2022-10-18T05:09:15.839Z,10.73
2022-10-18T05:12:03.018Z,7.72
2022-10-18T05:35:47.542Z,8.40
2022-10-18T05:41:58.274Z,7.53
2022-10-18T05:44:45.579Z,8.43
2022-10-18T05:50:50.352Z,6.65
2022-10-18T06:09:22.145Z,5.40
2022-10-18T06:12:09.922Z,9.48
2022-10-18T06:14:57.225Z,6.05
2022-10-18T06:17:44.463Z,5.97
2022-10-18T06:20:31.565Z,6.50
2022-10-18T06:23:19.066Z,9.07
2022-10-18T06:26:08.282Z,7.38
2022-10-18T06:28:55.615Z,8.27
2022-10-18T06:31:42.802Z,7.80
2022-10-18T06:34:29.888Z,8.23
2022-10-18T06:37:17.270Z,7.55
2022-10-18T06:40:05.747Z,10.02
2022-10-18T06:43:00.520Z,11.25
2022-10-18T06:45:57.771Z,6.00
2022-10-18T06:48:44.987Z,7.57
2022-10-18T06:51:32.071Z,5.65
2022-10-18T06:54:19.351Z,7.53
2022-10-18T06:57:06.478Z,7.38
2022-10-18T06:59:53.563Z,7.85
2022-10-18T07:02:41.323Z,8.65
2022-10-18T07:05:28.566Z,6.78
2022-10-18T07:08:16.181Z,5.97
2022-10-18T07:11:04.425Z,4.88
2022-10-18T07:13:54.620Z,8.27
2022-10-18T07:16:41.931Z,13.18
2022-10-18T07:19:29.025Z,5.47
2022-10-18T07:22:16.117Z,6.63
2022-10-18T07:25:03.425Z,10.05
2022-10-18T07:27:50.777Z,5.57
2022-10-18T07:30:37.965Z,6.60
2022-10-18T07:33:28.803Z,5.80
2022-10-18T07:36:16.247Z,7.53
2022-10-18T07:39:04.039Z,8.43
2022-10-18T07:41:51.103Z,5.70
2022-10-18T07:44:39.300Z,9.50
2022-10-18T07:47:28.028Z,9.25
2022-10-18T07:53:04.568Z,8.20
2022-10-18T07:55:51.744Z,7.90
2022-10-18T07:58:38.806Z,9.00
2022-10-18T08:01:26.078Z,7.55
2022-10-18T08:04:16.363Z,9.77
2022-10-18T08:07:03.838Z,7.72
2022-10-18T08:09:51.044Z,9.02
2022-10-18T08:12:38.230Z,10.45
2022-10-18T08:15:25.760Z,7.90
2022-10-18T08:18:13.290Z,8.23
2022-10-18T08:21:01.617Z,12.45
2022-10-18T08:23:49.292Z,8.20
2022-10-18T08:26:36.619Z,7.55
2022-10-18T08:29:26.845Z,9.48
2022-10-18T08:32:16.399Z,6.40
2022-10-18T08:35:06.872Z,10.85
2022-10-18T08:37:55.769Z,5.90
2022-10-18T08:40:44.432Z,6.80
2022-10-18T08:43:43.637Z,11.63
2022-10-18T08:46:33.156Z,10.48
2022-10-18T08:49:30.034Z,8.52
2022-10-18T08:52:31.671Z,7.13
2022-10-18T08:58:46.327Z,12.85
2022-10-18T09:05:00.290Z,7.22
2022-10-18T09:08:09.744Z,6.90
2022-10-18T09:11:16.030Z,7.65
2022-10-18T09:14:36.195Z,8.18
2022-10-18T09:17:43.081Z,5.65
2022-10-18T09:20:46.603Z,12.30
2022-10-18T09:23:47.712Z,7.60
2022-10-18T09:29:59.253Z,11.02
2022-10-18T09:32:59.899Z,9.95
2022-10-18T09:35:55.468Z,8.48
2022-10-18T09:38:46.313Z,6.70
2022-10-18T09:41:46.564Z,11.80
2022-10-18T09:44:38.024Z,8.70
2022-10-18T09:47:32.894Z,6.28
2022-10-18T09:50:43.989Z,14.65
2022-10-18T09:56:39.387Z,12.13
2022-10-18T09:59:35.531Z,8.88
2022-10-18T10:02:24.035Z,11.30
2022-10-18T10:05:15.307Z,9.07
2022-10-18T10:08:04.255Z,12.40
2022-10-18T10:10:52.321Z,6.32
2022-10-18T10:13:39.522Z,8.57
2022-10-18T10:16:27.410Z,7.40
2022-10-18T10:19:27.717Z,9.13
2022-10-18T10:22:15.041Z,7.28
2022-10-18T10:25:02.394Z,9.10
2022-10-18T10:27:50.047Z,8.75
2022-10-18T10:30:38.632Z,4.78
2022-10-18T10:33:35.620Z,9.40
2022-10-18T10:36:22.847Z,9.65
2022-10-18T10:39:20.880Z,5.82
2022-10-18T10:42:13.574Z,5.30
2022-10-18T10:45:03.365Z,6.03
2022-10-18T10:47:54.450Z,8.65
2022-10-18T10:50:59.991Z,11.45
2022-10-18T10:53:59.469Z,11.63
2022-10-18T10:57:03.519Z,6.72
2022-10-18T10:59:57.092Z,9.20
2022-10-18T11:02:55.404Z,9.68
2022-10-18T11:05:55.656Z,11.00
2022-10-18T11:08:43.590Z,8.38
2022-10-18T11:11:39.291Z,8.45
2022-10-18T11:14:30.566Z,6.93
2022-10-18T11:17:42.707Z,5.90
2022-10-18T11:20:57.147Z,11.90
2022-10-18T11:23:45.439Z,6.30
2022-10-18T11:26:52.084Z,8.23
2022-10-18T11:29:47.042Z,7.80
2022-10-18T11:32:48.569Z,6.95
2022-10-18T11:36:04.972Z,6.47
2022-10-18T11:38:54.940Z,9.00
2022-10-18T11:41:49.989Z,10.10
2022-10-18T11:44:54.328Z,11.00
2022-10-18T11:48:00.208Z,5.65
2022-10-18T11:51:06.123Z,10.65
2022-10-18T11:54:09.119Z,7.85
2022-10-18T11:57:19.163Z,7.05
2022-10-18T12:00:39.589Z,5.47
2022-10-18T12:04:04.860Z,7.95
2022-10-18T12:06:56.476Z,4.70
2022-10-18T12:09:46.096Z,6.60
2022-10-18T12:12:50.436Z,10.85
2022-10-18T12:15:39.575Z,6.38
2022-10-18T12:18:27.920Z,6.50
2022-10-18T12:21:20.828Z,7.93
2022-10-18T12:24:27.627Z,4.75
2022-10-18T12:27:35.762Z,8.80
2022-10-18T12:30:35.192Z,5.28
2022-10-18T12:33:29.037Z,6.47
2022-10-18T12:36:22.369Z,4.07
2022-10-18T12:39:33.330Z,7.82
2022-10-18T12:45:28.055Z,9.55
2022-10-18T12:48:29.372Z,7.10
2022-10-18T12:51:22.356Z,7.80
2022-10-18T12:54:11.701Z,4.40
2022-10-18T12:57:04.737Z,5.93
2022-10-18T12:59:52.010Z,6.57
2022-10-18T13:02:39.139Z,6.82
2022-10-18T13:05:55.275Z,4.80
2022-10-18T13:08:43.589Z,3.30
2022-10-18T13:11:33.379Z,11.27
2022-10-18T13:14:26.630Z,8.25
2022-10-18T13:17:32.191Z,7.45
2022-10-18T13:20:43.176Z,8.43
2022-10-18T13:23:57.948Z,5.43
2022-10-18T13:27:04.019Z,3.53
2022-10-18T13:30:03.117Z,5.20
2022-10-18T13:33:22.228Z,3.60
2022-10-18T13:36:22.831Z,3.20
2022-10-18T13:39:20.103Z,3.70
2022-10-18T13:42:20.633Z,5.00
2022-10-18T13:45:33.048Z,4.60
2022-10-18T13:48:34.182Z,3.53
2022-10-18T13:51:30.901Z,10.23
2022-10-18T13:54:44.105Z,7.55
2022-10-18T13:57:49.797Z,5.55
2022-10-18T14:01:05.105Z,6.60
2022-10-18T14:04:26.701Z,5.70
2022-10-18T14:07:18.409Z,4.28
2022-10-18T14:10:11.394Z,6.70
2022-10-18T14:13:02.773Z,5.80
2022-10-18T14:15:52.865Z,7.28
2022-10-18T14:18:43.260Z,9.82
2022-10-18T14:21:38.412Z,5.70
2022-10-18T14:24:30.030Z,8.23
2022-10-18T14:27:22.259Z,5.30
2022-10-18T14:30:20.656Z,6.32
2022-10-18T14:33:25.523Z,9.30
2022-10-18T14:36:24.464Z,5.20
2022-10-18T14:39:21.075Z,42.00
2022-10-18T14:42:21.308Z,5.32
2022-10-18T14:45:19.594Z,8.95
2022-10-18T14:48:17.438Z,8.35
2022-10-18T14:51:09.785Z,6.45
2022-10-18T14:53:57.063Z,8.63
2022-10-18T14:56:45.463Z,10.43
2022-10-18T14:59:37.279Z,8.45
2022-10-18T15:02:27.078Z,6.38
2022-10-18T15:05:22.116Z,7.15
2022-10-18T15:08:09.763Z,7.35
2022-10-18T15:10:57.272Z,7.57
2022-10-18T15:13:55.857Z,7.65
2022-10-18T15:16:43.282Z,7.00
2022-10-18T15:19:36.277Z,10.05
2022-10-18T15:22:33.380Z,6.88
2022-10-18T15:25:20.542Z,13.30
2022-10-18T15:28:28.649Z,10.38
2022-10-18T15:31:34.833Z,8.90
2022-10-18T15:34:26.789Z,5.97
2022-10-18T15:37:26.408Z,8.88
2022-10-18T15:40:31.721Z,10.70
2022-10-18T15:43:28.126Z,5.82
2022-10-18T15:46:31.592Z,8.90
2022-10-18T15:49:24.814Z,6.22
2022-10-18T15:52:38.453Z,5.45
2022-10-18T15:55:35.408Z,4.10
2022-10-18T15:58:28.809Z,4.57
2022-10-18T16:01:42.670Z,8.30
2022-10-18T16:04:33.163Z,6.13
2022-10-18T16:07:20.453Z,6.53
2022-10-18T16:10:17.012Z,6.75
2022-10-18T16:13:04.743Z,5.60
2022-10-18T16:15:52.282Z,6.18
2022-10-18T16:18:39.486Z,5.57
2022-10-18T16:21:30.000Z,11.35
2022-10-18T16:24:17.375Z,11.02
2022-10-18T16:27:04.968Z,10.02
2022-10-18T16:29:52.122Z,13.88
2022-10-18T16:32:40.382Z,14.80
2022-10-18T16:35:27.693Z,6.65
2022-10-18T16:38:22.666Z,6.80
2022-10-18T16:41:10.814Z,5.63
2022-10-18T16:43:57.933Z,7.57
2022-10-18T16:46:46.309Z,8.82
2022-10-18T16:49:33.512Z,12.52
2022-10-18T16:52:20.774Z,6.47
2022-10-18T16:55:24.780Z,8.73
2022-10-18T16:58:18.035Z,8.10
2022-10-18T17:01:08.078Z,5.60
2022-10-18T17:03:56.313Z,5.85
2022-10-18T17:06:43.863Z,5.65
2022-10-18T17:09:31.145Z,8.68
2022-10-18T17:12:18.360Z,7.63
2022-10-18T17:15:06.459Z,6.00
2022-10-18T17:17:53.725Z,5.05
2022-10-18T17:20:42.198Z,11.25
2022-10-18T17:23:30.097Z,10.75
2022-10-18T17:26:34.513Z,9.38
2022-10-18T17:29:21.739Z,11.35
2022-10-18T17:32:08.912Z,23.35
2022-10-18T17:34:56.032Z,18.50
2022-10-18T17:37:47.152Z,13.15
2022-10-18T17:40:35.201Z,17.52
2022-10-18T17:43:22.399Z,15.73
2022-10-18T17:46:12.186Z,14.23
2022-10-18T17:48:59.376Z,18.58
2022-10-18T17:51:46.709Z,13.40
2022-10-18T17:54:33.983Z,17.10
2022-10-18T17:57:21.091Z,17.48
2022-10-18T18:00:11.660Z,27.08
2022-10-18T18:03:02.116Z,51.47
2022-10-18T18:05:49.368Z,36.60
2022-10-18T18:08:36.835Z,15.13
2022-10-18T18:11:25.675Z,19.02
2022-10-18T18:14:13.067Z,13.63
2022-10-18T18:17:01.463Z,15.35
2022-10-18T18:22:40.338Z,17.20
2022-10-18T18:25:29.645Z,15.07
2022-10-18T18:28:16.908Z,22.10
2022-10-18T18:31:13.663Z,16.83
2022-10-18T18:34:00.881Z,18.35
2022-10-18T18:36:48.777Z,17.15
2022-10-18T18:39:36.057Z,17.23
2022-10-18T18:42:23.156Z,17.98
2022-10-18T18:45:10.356Z,15.90
2022-10-18T18:47:57.626Z,17.80
2022-10-18T18:50:50.015Z,17.75
2022-10-18T18:53:39.218Z,18.35
2022-10-18T18:56:28.181Z,17.00
2022-10-18T18:59:16.065Z,15.60
2022-10-18T19:02:03.310Z,19.33
2022-10-18T19:04:50.792Z,16.10
2022-10-18T19:07:37.949Z,16.88
2022-10-18T19:10:25.169Z,15.73
2022-10-18T19:13:12.433Z,13.57
2022-10-18T19:16:18.482Z,13.70
2022-10-18T19:19:15.871Z,19.38
2022-10-18T19:22:08.392Z,16.52
2022-10-18T19:24:55.491Z,20.67
2022-10-18T19:27:42.743Z,14.80
2022-10-18T19:30:29.931Z,14.07
2022-10-18T19:33:35.587Z,16.58
2022-10-18T19:36:30.381Z,21.50
2022-10-18T19:39:24.787Z,24.63
2022-10-18T19:42:17.463Z,16.45
2022-10-18T19:45:09.033Z,16.48
2022-10-18T19:47:56.127Z,18.40
2022-10-18T19:50:43.245Z,22.95
2022-10-18T19:53:30.372Z,20.38
2022-10-18T19:56:23.392Z,23.13
2022-10-18T19:59:12.000Z,23.63
2022-10-18T20:02:01.706Z,28.88
2022-10-18T20:04:48.872Z,29.48
2022-10-18T20:07:36.629Z,31.92
2022-10-18T20:10:23.909Z,39.53
2022-10-18T20:13:11.051Z,32.38
2022-10-18T20:15:58.616Z,29.02
2022-10-18T20:18:45.823Z,31.88
2022-10-18T20:21:35.672Z,24.98
2022-10-18T20:24:22.950Z,25.38
2022-10-18T20:27:10.228Z,20.65
2022-10-18T20:29:57.570Z,23.23
2022-10-18T20:32:44.675Z,18.98
2022-10-18T20:35:32.386Z,25.20
2022-10-18T20:38:19.567Z,23.08
2022-10-18T20:41:10.091Z,27.75
2022-10-18T20:44:02.460Z,20.95
2022-10-18T20:46:49.659Z,23.10
2022-10-18T20:49:37.163Z,22.45
2022-10-18T20:52:24.407Z,26.38
2022-10-18T20:55:11.680Z,25.55
2022-10-18T20:57:58.764Z,25.73
2022-10-18T21:00:45.979Z,128.82
2022-10-18T21:03:33.249Z,183.65
2022-10-18T21:06:22.158Z,294.02
2022-10-18T21:09:15.586Z,476.10
2022-10-18T21:12:02.774Z,68.10
2022-10-18T21:14:49.920Z,65.78
2022-10-18T21:17:37.100Z,96.68
2022-10-18T21:20:24.331Z,75.90
2022-10-18T21:23:11.480Z,108.93
2022-10-18T21:25:58.654Z,86.75
2022-10-18T21:28:45.963Z,58.20
2022-10-18T21:31:35.717Z,53.20
2022-10-18T21:34:23.012Z,48.83
2022-10-18T21:37:10.225Z,55.40
2022-10-18T21:39:57.356Z,48.50
2022-10-18T21:42:44.462Z,42.42
2022-10-18T21:45:31.545Z,79.75
2022-10-18T21:48:18.654Z,36.20
2022-10-18T21:51:07.397Z,39.38
2022-10-18T21:53:56.197Z,38.83
2022-10-18T21:56:43.657Z,80.13
2022-10-18T21:59:30.886Z,55.60
2022-10-18T22:02:17.967Z,57.08
2022-10-18T22:05:08.312Z,121.63
2022-10-18T22:07:58.383Z,68.47
2022-10-18T22:10:47.057Z,38.78
2022-10-18T22:13:34.206Z,35.63
2022-10-18T22:16:21.455Z,32.38
2022-10-18T22:19:08.681Z,31.35
2022-10-18T22:21:55.767Z,29.17
2022-10-18T22:24:42.898Z,35.80
2022-10-18T22:27:31.126Z,75.82
2022-10-18T22:30:18.731Z,70.72
2022-10-18T22:33:05.893Z,100.63
2022-10-18T22:35:53.109Z,82.63
2022-10-18T22:38:40.381Z,86.43
2022-10-18T22:41:27.726Z,88.80
2022-10-18T22:44:15.363Z,59.70
2022-10-18T22:47:03.693Z,67.93
2022-10-18T22:49:50.953Z,132.45
2022-10-18T22:52:38.069Z,92.90
2022-10-18T22:55:25.634Z,119.30
2022-10-18T22:58:13.325Z,91.90
2022-10-18T23:01:21.589Z,101.88
2022-10-18T23:04:10.373Z,111.05
2022-10-18T23:06:57.544Z,115.65
2022-10-18T23:09:44.717Z,119.47
2022-10-18T23:12:32.247Z,82.47
2022-10-18T23:15:19.665Z,111.43
2022-10-18T23:18:06.821Z,198.75
2022-10-18T23:21:04.117Z,39.08
2022-10-18T23:23:52.747Z,91.60
2022-10-18T23:26:39.971Z,207.48
2022-10-18T23:29:27.088Z,99.22
2022-10-18T23:32:14.341Z,136.65
2022-10-18T23:35:01.889Z,100.50
2022-10-18T23:37:49.199Z,108.07
2022-10-18T23:40:36.832Z,101.60
2022-10-18T23:43:24.378Z,98.03
2022-10-18T23:46:12.435Z,70.15
2022-10-18T23:48:59.578Z,68.25
2022-10-18T23:51:46.775Z,100.18
2022-10-18T23:54:34.308Z,101.03
2022-10-18T23:57:21.633Z,209.45
